»·PEaware :: N621PW KSBA-KSBA

N621PW :: KSBA-KSBA

FLIGHT INFORMATION

Flight Status: Arrived
Operator: Privately registered:
United States
More flights under this callsign
Pilot: Mike S. (27846)
Aircraft: PIPER PA-28R-201 ARROW
(P28R)
More flights by this aircraft type
Origin: KSBA Santa Barbara Mun
United States
Destination: KSBA Santa Barbara Mun
United States
More flights between these airports :: More routes between these airports
Route: +RZS
File this flight plan on PilotEdge
Remarks: PRACTICE APPROACHES
Altitude:
(Current/Filed)
4,000ft
Speed:
(Current/Filed)
135kts
Departed: 28-Oct-20 06:28 PM
Arrived: 28-Oct-20 07:43 PM
Distance/Time
Traveled:
0nm/1:15
Distance/Time
To Go:
Arrived

Flight Plot

Page will automatically refresh every two minutes.


Map Options




Map Legend


Flown Route
Filed Route
Departure Airport
Arrival Airport
Navaid (VOR, NDB)
Fix

Horizontal Profiles

Position Reports

Time Latitude Longitude Heading Altitude Ground
Speed
28-Oct-20 18:04 34.432568 -119.835091 71 15ft 0kts
28-Oct-20 18:05 34.432568 -119.835091 71 15ft 0kts
28-Oct-20 18:06 34.432568 -119.835091 71 15ft 0kts
28-Oct-20 18:07 34.432568 -119.835091 71 15ft 0kts
28-Oct-20 18:08 34.432568 -119.835091 71 15ft 0kts
28-Oct-20 18:09 34.432568 -119.835091 71 15ft 0kts
28-Oct-20 18:10 34.432568 -119.835091 71 15ft 0kts
28-Oct-20 18:11 34.432568 -119.835091 71 15ft 0kts
28-Oct-20 18:12 34.432568 -119.835091 71 15ft 0kts
28-Oct-20 18:13 34.432305 -119.835143 220 15ft 0kts
28-Oct-20 18:14 34.432305 -119.835143 220 15ft 0kts
28-Oct-20 18:15 34.430927 -119.839066 250 15ft 16kts
28-Oct-20 18:16 34.430901 -119.839657 257 15ft 0kts
28-Oct-20 18:17 34.430901 -119.839657 257 15ft 0kts
28-Oct-20 18:17 34.430901 -119.839657 257 15ft 0kts
28-Oct-20 18:19 34.430901 -119.839657 257 15ft 0kts
28-Oct-20 18:19 34.430901 -119.839657 257 15ft 0kts
28-Oct-20 18:21 34.430901 -119.839657 257 15ft 0kts
28-Oct-20 18:21 34.430901 -119.839657 257 15ft 0kts
28-Oct-20 18:23 34.430901 -119.839657 257 15ft 0kts
28-Oct-20 18:23 34.430901 -119.839657 257 15ft 0kts
28-Oct-20 18:24 34.430901 -119.839657 257 15ft 0kts
28-Oct-20 18:25 34.430793 -119.839807 223 15ft 0kts
28-Oct-20 18:26 34.430793 -119.839807 223 15ft 0kts
28-Oct-20 18:27 34.426535 -119.839062 166 21ft 71kts
28-Oct-20 18:28 34.404757 -119.831660 163 712ft 85kts
28-Oct-20 18:29 34.381723 -119.824609 163 1490ft 85kts
28-Oct-20 18:30 34.358820 -119.817021 164 2189ft 85kts
28-Oct-20 18:31 34.335768 -119.809698 164 2844ft 86kts
28-Oct-20 18:32 34.308125 -119.801822 163 3062ft 117kts
28-Oct-20 18:33 34.273805 -119.794165 200 2984ft 133kts
28-Oct-20 18:34 34.266957 -119.836658 270 2987ft 140kts
28-Oct-20 18:35 34.275570 -119.881508 303 3018ft 141kts
28-Oct-20 18:36 34.297078 -119.920992 302 3068ft 141kts
28-Oct-20 18:37 34.318671 -119.961601 302 3022ft 143kts
28-Oct-20 18:38 34.340063 -120.002104 301 3001ft 143kts
28-Oct-20 18:39 34.361871 -120.039068 304 3027ft 118kts
28-Oct-20 18:40 34.380165 -120.069766 304 2980ft 109kts
28-Oct-20 18:41 34.402033 -120.070240 73 2991ft 102kts
28-Oct-20 18:42 34.417693 -120.040888 58 2820ft 105kts
28-Oct-20 18:43 34.425746 -120.008943 91 2528ft 99kts
28-Oct-20 18:44 34.425341 -119.975052 93 2054ft 100kts
28-Oct-20 18:45 34.426018 -119.941425 87 1529ft 100kts
28-Oct-20 18:46 34.425778 -119.907679 91 925ft 99kts
28-Oct-20 18:47 34.426973 -119.874426 91 381ft 98kts
28-Oct-20 18:48 34.427703 -119.844154 89 16ft 73kts
28-Oct-20 18:49 34.427106 -119.816054 93 741ft 85kts
28-Oct-20 18:50 34.408553 -119.809861 199 1509ft 87kts
28-Oct-20 18:51 34.386103 -119.821361 193 2223ft 87kts
28-Oct-20 18:52 34.362829 -119.830425 194 2895ft 88kts
28-Oct-20 18:53 34.339503 -119.839950 194 3558ft 89kts
28-Oct-20 18:54 34.315715 -119.850349 197 3986ft 92kts
28-Oct-20 18:55 34.290298 -119.861508 196 3977ft 98kts
28-Oct-20 18:56 34.269082 -119.856935 102 4001ft 90kts
28-Oct-20 18:57 34.251457 -119.835504 104 3961ft 96kts
28-Oct-20 18:58 34.271457 -119.829423 298 3998ft 109kts
28-Oct-20 18:59 34.282317 -119.863461 319 3948ft 113kts
28-Oct-20 19:00 34.301024 -119.852931 94 3948ft 98kts
28-Oct-20 19:01 34.304531 -119.820685 76 3965ft 97kts
28-Oct-20 19:02 34.309968 -119.788743 82 4027ft 98kts
28-Oct-20 19:03 34.315340 -119.756044 84 3958ft 97kts
28-Oct-20 19:04 34.320849 -119.723528 88 3928ft 98kts
28-Oct-20 19:05 34.326308 -119.690838 83 3925ft 99kts
28-Oct-20 19:06 34.331416 -119.658023 81 3931ft 99kts
28-Oct-20 19:07 34.338385 -119.625415 81 3936ft 100kts
28-Oct-20 19:08 34.354700 -119.602130 343 3780ft 117kts
28-Oct-20 19:09 34.364714 -119.635061 268 3342ft 108kts
28-Oct-20 19:10 34.369870 -119.671238 296 2835ft 108kts
28-Oct-20 19:11 34.382970 -119.704146 298 2371ft 108kts
28-Oct-20 19:12 34.395306 -119.737273 298 1820ft 107kts
28-Oct-20 19:13 34.407530 -119.769868 294 1201ft 105kts
28-Oct-20 19:14 34.419527 -119.802092 297 1004ft 101kts
28-Oct-20 19:15 34.427685 -119.834954 263 1213ft 102kts
28-Oct-20 19:16 34.409227 -119.859354 217 2032ft 101kts
28-Oct-20 19:17 34.387396 -119.881199 215 2758ft 103kts
28-Oct-20 19:18 34.366176 -119.905076 220 3448ft 105kts
28-Oct-20 19:19 34.340643 -119.899940 149 3965ft 108kts
28-Oct-20 19:20 34.313182 -119.883911 149 4005ft 101kts
28-Oct-20 19:21 34.288025 -119.869311 180 3990ft 107kts
28-Oct-20 19:22 34.277607 -119.901291 262 4008ft 112kts
28-Oct-20 19:23 34.272989 -119.938650 270 4010ft 113kts
28-Oct-20 19:24 34.271951 -119.976736 261 4007ft 113kts
28-Oct-20 19:25 34.269248 -120.014636 263 4014ft 113kts
28-Oct-20 19:26 34.266200 -120.052487 267 4021ft 112kts
28-Oct-20 19:27 34.268330 -120.088133 324 4032ft 104kts
28-Oct-20 19:28 34.294710 -120.085836 13 3907ft 99kts
28-Oct-20 19:29 34.322277 -120.086610 2 3591ft 99kts
28-Oct-20 19:30 34.349663 -120.086698 2 3228ft 98kts
28-Oct-20 19:31 34.377021 -120.086383 8 2883ft 99kts
28-Oct-20 19:32 34.404106 -120.086291 1 2843ft 97kts
28-Oct-20 19:33 34.427234 -120.078287 81 2835ft 98kts
28-Oct-20 19:34 34.422662 -120.045980 91 2370ft 98kts
28-Oct-20 19:35 34.423019 -120.013330 89 1840ft 100kts
28-Oct-20 19:36 34.423393 -119.980560 89 1848ft 97kts
28-Oct-20 19:37 34.424001 -119.947967 91 1576ft 99kts
28-Oct-20 19:38 34.424760 -119.915124 85 944ft 97kts
28-Oct-20 19:39 34.425277 -119.882897 88 852ft 91kts
28-Oct-20 19:40 34.433513 -119.856886 57 693ft 78kts
28-Oct-20 19:41 34.429351 -119.839928 163 27ft 69kts
28-Oct-20 19:42 34.423830 -119.837462 164 15ft 11kts
28-Oct-20 19:43 34.419990 -119.836118 72 15ft 11kts

Navigation Log

Ident Type
Flight plan parsing failed, navigation log unavailable